createdAt,value
2017-07-02T00:01:33.846Z,9
2017-07-02T00:11:33.912Z,9
2017-07-02T00:21:33.896Z,9
2017-07-02T00:31:33.944Z,8
2017-07-02T00:41:33.906Z,8
2017-07-02T00:51:33.984Z,7
2017-07-02T01:01:33.913Z,8
2017-07-02T01:11:33.926Z,8
2017-07-02T01:21:33.910Z,10
2017-07-02T01:31:33.948Z,11
2017-07-02T01:41:33.900Z,7
2017-07-02T01:51:33.849Z,9
2017-07-02T02:01:33.917Z,9
2017-07-02T02:11:33.869Z,9
2017-07-02T02:21:33.915Z,9
2017-07-02T02:31:33.916Z,8
2017-07-02T02:41:33.861Z,8
2017-07-02T02:51:33.933Z,8
2017-07-02T03:01:33.910Z,9
2017-07-02T03:11:33.859Z,8
2017-07-02T03:21:33.912Z,8
2017-07-02T03:31:33.841Z,8
2017-07-02T03:41:33.941Z,7
2017-07-02T03:51:33.852Z,7
2017-07-02T04:01:33.886Z,9
2017-07-02T04:11:33.921Z,9
2017-07-02T04:21:33.819Z,9
2017-07-02T04:31:33.807Z,10
2017-07-02T04:41:33.907Z,11
2017-07-02T04:51:33.855Z,9
2017-07-02T05:01:33.915Z,10
2017-07-02T05:11:33.906Z,8
2017-07-02T05:21:33.813Z,8
2017-07-02T05:31:33.902Z,7
2017-07-02T05:41:33.846Z,8
2017-07-02T05:51:33.810Z,5
2017-07-02T06:01:33.931Z,6
2017-07-02T06:11:33.864Z,6
2017-07-02T06:21:33.937Z,6
2017-07-02T06:31:33.871Z,6
2017-07-02T06:41:34.155Z,7
2017-07-02T06:51:33.871Z,7
2017-07-02T07:01:33.867Z,7
2017-07-02T07:11:33.963Z,8
2017-07-02T07:21:33.871Z,8
2017-07-02T07:31:33.921Z,9
2017-07-02T07:41:33.931Z,8
2017-07-02T07:51:33.878Z,10
2017-07-02T08:01:33.929Z,10
2017-07-02T08:11:33.954Z,11
2017-07-02T08:21:34.008Z,12
2017-07-02T08:31:33.969Z,13
2017-07-02T08:41:33.934Z,14
2017-07-02T08:51:34.177Z,17
2017-07-02T09:01:33.976Z,15
2017-07-02T09:11:33.852Z,16
2017-07-02T09:21:34.044Z,18
2017-07-02T09:31:33.921Z,18
2017-07-02T09:41:33.844Z,18
2017-07-02T09:51:36.610Z,18
2017-07-02T10:01:33.977Z,16
2017-07-02T10:11:33.980Z,19
2017-07-02T10:21:33.905Z,18
2017-07-02T10:31:34.059Z,17
2017-07-02T10:41:33.972Z,17
2017-07-02T10:51:33.985Z,16
2017-07-02T11:01:34.165Z,15
2017-07-02T11:11:34.437Z,14
2017-07-02T11:21:33.982Z,13
2017-07-02T11:31:33.927Z,12
2017-07-02T11:41:34.517Z,9
2017-07-02T11:51:33.918Z,6
2017-07-02T12:01:33.903Z,5
2017-07-02T12:11:33.897Z,4
2017-07-02T12:21:33.991Z,6
2017-07-02T12:31:33.941Z,3
2017-07-02T12:41:33.863Z,3
2017-07-02T12:51:33.935Z,3
2017-07-02T13:01:33.889Z,2
2017-07-02T13:11:33.906Z,2
2017-07-02T13:21:33.999Z,3
2017-07-02T13:31:33.973Z,2
2017-07-02T13:41:33.882Z,2
2017-07-02T13:51:33.941Z,2
2017-07-02T14:01:34.091Z,1
2017-07-02T14:11:33.916Z,2
2017-07-02T14:21:33.921Z,1
2017-07-02T14:31:33.911Z,1
2017-07-02T14:41:34.117Z,2
2017-07-02T14:51:34.108Z,2
2017-07-02T15:01:34.386Z,2
2017-07-02T15:11:34.249Z,2
2017-07-02T15:21:36.000Z,2
2017-07-02T15:31:33.906Z,1
2017-07-02T15:41:33.923Z,2
2017-07-02T15:51:34.027Z,2
2017-07-02T16:01:33.931Z,2
2017-07-02T16:11:34.498Z,3
2017-07-02T16:21:33.993Z,3
2017-07-02T16:31:33.944Z,3
2017-07-02T16:41:36.309Z,2
2017-07-02T16:51:34.521Z,2
2017-07-02T17:01:33.931Z,2
2017-07-02T17:11:33.954Z,2
2017-07-02T17:21:34.013Z,2
2017-07-02T17:31:34.027Z,2
2017-07-02T17:41:33.973Z,1
2017-07-02T17:51:33.963Z,1
2017-07-02T18:01:46.240Z,3
2017-07-02T18:11:34.855Z,1
2017-07-02T18:21:53.511Z,2
2017-07-02T18:42:13.539Z,1
2017-07-02T18:51:34.825Z,2
2017-07-02T19:01:37.928Z,2
2017-07-02T19:11:48.437Z,2
2017-07-02T19:21:46.524Z,2
2017-07-02T19:31:54.427Z,2
2017-07-02T19:41:38.927Z,3
2017-07-02T19:51:34.788Z,3
2017-07-02T20:01:44.576Z,3
2017-07-02T20:11:59.305Z,3
2017-07-02T20:21:38.138Z,3
2017-07-02T20:31:36.817Z,2
2017-07-02T20:42:22.210Z,3
2017-07-02T20:52:49.583Z,4
2017-07-02T21:01:59.483Z,7
2017-07-02T21:11:46.204Z,5
2017-07-02T21:21:38.625Z,3
2017-07-02T21:31:40.651Z,2
2017-07-02T21:41:43.069Z,2
2017-07-02T21:51:34.330Z,2
2017-07-02T22:01:34.355Z,3
2017-07-02T22:11:34.295Z,3
2017-07-02T22:21:35.479Z,3
2017-07-02T22:31:34.809Z,3
2017-07-02T22:41:34.408Z,3
2017-07-02T22:51:35.515Z,3
2017-07-02T23:01:34.633Z,3
2017-07-02T23:11:34.360Z,3
2017-07-02T23:21:34.267Z,3
2017-07-02T23:31:34.543Z,4
2017-07-02T23:41:34.189Z,4
2017-07-02T23:51:37.154Z,3
